createdAt,value
2017-07-30T00:02:22.853Z,94263.08
2017-07-30T00:04:50.591Z,94264.01
2017-07-30T00:07:18.367Z,94255.74
2017-07-30T00:09:46.071Z,94252.44
2017-07-30T00:12:13.837Z,94252.05
2017-07-30T00:14:41.652Z,94248.36
2017-07-30T00:17:09.347Z,94254.67
2017-07-30T00:19:37.129Z,94243.47
2017-07-30T00:22:04.838Z,94242.53
2017-07-30T00:24:32.552Z,94237.80
2017-07-30T00:27:00.382Z,94233.91
2017-07-30T00:29:28.074Z,94233.53
2017-07-30T00:31:55.848Z,94225.24
2017-07-30T00:34:23.649Z,94226.02
2017-07-30T00:36:51.366Z,94218.36
2017-07-30T00:39:20.007Z,94215.78
2017-07-30T00:41:47.735Z,94211.28
2017-07-30T00:44:15.516Z,94214.10
2017-07-30T00:46:43.396Z,94214.69
2017-07-30T00:49:11.160Z,94212.44
2017-07-30T00:51:38.831Z,94218.88
2017-07-30T00:54:06.553Z,94221.13
2017-07-30T00:56:34.292Z,94219.41
2017-07-30T00:59:02.080Z,94225.05
2017-07-30T01:01:29.797Z,94214.37
2017-07-30T01:03:57.487Z,94218.45
2017-07-30T01:06:25.238Z,94214.34
2017-07-30T01:08:54.193Z,94224.08
2017-07-30T01:11:21.949Z,94237.62
2017-07-30T01:13:49.714Z,94223.15
2017-07-30T01:16:17.529Z,94220.51
2017-07-30T01:18:45.229Z,94224.85
2017-07-30T01:21:13.980Z,94228.37
2017-07-30T01:23:41.813Z,94232.23
2017-07-30T01:26:09.507Z,94223.20
2017-07-30T01:28:38.992Z,94222.06
2017-07-30T01:31:07.167Z,94219.09
2017-07-30T01:33:34.873Z,94211.38
2017-07-30T01:36:02.558Z,94208.13
2017-07-30T01:38:30.356Z,94219.05
2017-07-30T01:40:58.083Z,94217.23
2017-07-30T01:43:25.812Z,94221.02
2017-07-30T01:45:53.710Z,94227.17
2017-07-30T01:48:21.430Z,94238.55
2017-07-30T01:50:49.196Z,94237.20
2017-07-30T01:53:16.995Z,94239.91
2017-07-30T01:55:45.494Z,94238.03
2017-07-30T01:58:13.219Z,94235.91
2017-07-30T02:00:40.989Z,94242.01
2017-07-30T02:03:08.754Z,94251.59
2017-07-30T02:05:36.460Z,94248.42
2017-07-30T02:08:04.480Z,94236.70
2017-07-30T02:10:32.176Z,94235.67
2017-07-30T02:12:59.881Z,94229.89
2017-07-30T02:15:27.650Z,94225.18
2017-07-30T02:17:55.359Z,94215.59
2017-07-30T02:20:23.159Z,94210.22
2017-07-30T02:22:50.892Z,94208.01
2017-07-30T02:25:18.638Z,94205.97
2017-07-30T02:27:46.375Z,94212.33
2017-07-30T02:30:14.169Z,94214.20
2017-07-30T02:32:41.886Z,94219.06
2017-07-30T02:35:09.636Z,94223.16
2017-07-30T02:37:37.390Z,94217.84
2017-07-30T02:40:05.080Z,94216.67
2017-07-30T02:42:32.820Z,94215.06
2017-07-30T02:45:01.546Z,94214.34
2017-07-30T02:47:29.259Z,94214.31
2017-07-30T02:49:57.035Z,94215.89
2017-07-30T02:52:24.751Z,94208.28
2017-07-30T02:54:52.515Z,94206.73
2017-07-30T02:57:20.251Z,94207.28
2017-07-30T02:59:48.028Z,94205.77
2017-07-30T03:02:15.728Z,94203.98
2017-07-30T03:04:43.416Z,94208.95
2017-07-30T03:07:11.176Z,94210.12
2017-07-30T03:09:39.167Z,94212.34
2017-07-30T03:12:06.881Z,94211.86
2017-07-30T03:14:34.577Z,94213.82
2017-07-30T03:17:02.362Z,94216.55
2017-07-30T03:19:30.071Z,94222.00
2017-07-30T03:21:57.860Z,94215.36
2017-07-30T03:24:25.630Z,94215.35
2017-07-30T03:26:53.345Z,94205.50
2017-07-30T03:29:21.051Z,94205.94
2017-07-30T03:31:48.824Z,94201.16
2017-07-30T03:34:16.540Z,94207.17
2017-07-30T03:36:44.272Z,94212.31
2017-07-30T03:39:12.002Z,94214.02
2017-07-30T03:41:39.763Z,94210.11
2017-07-30T03:44:07.489Z,94209.56
2017-07-30T03:46:35.288Z,94212.88
2017-07-30T03:49:04.112Z,94211.86
2017-07-30T03:51:31.834Z,94210.46
2017-07-30T03:53:59.518Z,94208.51
2017-07-30T03:56:27.269Z,94213.60
2017-07-30T03:58:54.998Z,94214.94
2017-07-30T04:01:22.882Z,94203.84
2017-07-30T04:03:50.587Z,94201.75
2017-07-30T04:06:18.286Z,94199.11
2017-07-30T04:08:46.171Z,94197.28
2017-07-30T04:11:13.957Z,94193.95
2017-07-30T04:13:41.718Z,94202.52
2017-07-30T04:16:09.410Z,94204.35
2017-07-30T04:18:37.093Z,94204.65
2017-07-30T04:21:04.830Z,94200.15
2017-07-30T04:23:32.547Z,94200.03
2017-07-30T04:26:00.252Z,94198.11
2017-07-30T04:28:28.038Z,94201.03
2017-07-30T04:30:55.779Z,94200.80
2017-07-30T04:33:23.481Z,94202.86
2017-07-30T04:35:51.193Z,94201.97
2017-07-30T04:38:18.894Z,94197.89
2017-07-30T04:40:46.665Z,94199.83
2017-07-30T04:43:14.375Z,94202.70
2017-07-30T04:45:42.253Z,94198.08
2017-07-30T04:48:10.059Z,94200.02
2017-07-30T04:50:37.813Z,94203.58
2017-07-30T04:53:05.563Z,94200.44
2017-07-30T04:55:33.327Z,94201.94
2017-07-30T04:58:01.028Z,94211.16
2017-07-30T05:00:28.809Z,94209.03
2017-07-30T05:02:56.688Z,94206.70
2017-07-30T05:05:24.373Z,94198.73
2017-07-30T05:07:52.220Z,94201.80
2017-07-30T05:10:20.080Z,94203.45
2017-07-30T05:12:47.769Z,94203.50
2017-07-30T05:15:15.444Z,94207.20
2017-07-30T05:17:43.195Z,94200.72
2017-07-30T05:20:10.894Z,94202.61
2017-07-30T05:22:38.659Z,94205.09
2017-07-30T05:25:06.513Z,94202.33
2017-07-30T05:27:34.246Z,94206.75
2017-07-30T05:30:02.023Z,94203.56
2017-07-30T05:32:29.803Z,94205.98
2017-07-30T05:34:57.548Z,94209.10
2017-07-30T05:37:25.333Z,94205.11
2017-07-30T05:39:53.050Z,94197.48
2017-07-30T05:42:20.820Z,94194.36
2017-07-30T05:44:48.623Z,94203.05
2017-07-30T05:47:16.434Z,94196.78
2017-07-30T05:49:44.314Z,94200.22
2017-07-30T05:52:12.072Z,94203.53
2017-07-30T05:54:39.864Z,94193.48
2017-07-30T05:57:07.617Z,94192.58
2017-07-30T05:59:35.400Z,94188.61
2017-07-30T06:02:03.258Z,94185.87
2017-07-30T06:04:30.980Z,94184.61
2017-07-30T06:06:58.760Z,94185.61
2017-07-30T06:09:26.571Z,94191.80
2017-07-30T06:11:54.284Z,94193.23
2017-07-30T06:14:22.147Z,94197.19
2017-07-30T06:16:49.899Z,94189.28
2017-07-30T06:19:17.699Z,94189.52
2017-07-30T06:21:45.463Z,94185.17
2017-07-30T06:24:13.272Z,94182.94
2017-07-30T06:26:41.040Z,94185.39
2017-07-30T06:29:09.122Z,94179.40
2017-07-30T06:31:36.982Z,94176.86
2017-07-30T06:34:04.700Z,94177.22
2017-07-30T06:36:32.532Z,94175.00
2017-07-30T06:39:00.232Z,94165.25
2017-07-30T06:41:28.050Z,94161.27
2017-07-30T06:43:55.747Z,94159.20
2017-07-30T06:46:23.895Z,94158.56
2017-07-30T06:48:51.899Z,94147.68
2017-07-30T06:51:19.637Z,94154.28
2017-07-30T06:53:47.454Z,94154.08
2017-07-30T06:56:15.199Z,94153.33
2017-07-30T06:58:43.007Z,94155.17
2017-07-30T07:01:11.829Z,94163.94
2017-07-30T07:03:39.582Z,94159.16
2017-07-30T07:06:07.762Z,94158.77
2017-07-30T07:08:35.476Z,94164.90
2017-07-30T07:11:03.205Z,94155.24
2017-07-30T07:13:30.975Z,94158.31
2017-07-30T07:15:58.728Z,94153.28
2017-07-30T07:18:26.535Z,94151.53
2017-07-30T07:20:54.304Z,94152.66
2017-07-30T07:23:22.206Z,94141.70
2017-07-30T07:25:50.245Z,94134.80
2017-07-30T07:28:18.069Z,94130.58
2017-07-30T07:30:45.960Z,94133.34
2017-07-30T07:33:13.710Z,94137.13
2017-07-30T07:35:41.506Z,94140.03
2017-07-30T07:38:09.283Z,94135.89
2017-07-30T07:40:37.091Z,94132.57
2017-07-30T07:43:04.874Z,94134.32
2017-07-30T07:45:32.568Z,94128.11
2017-07-30T07:48:00.749Z,94127.74
2017-07-30T07:50:28.503Z,94129.82
2017-07-30T07:52:56.239Z,94131.42
2017-07-30T07:55:24.151Z,94138.06
2017-07-30T07:57:51.947Z,94130.11
2017-07-30T08:00:19.747Z,94134.41
2017-07-30T08:02:47.554Z,94133.34
2017-07-30T08:05:15.594Z,94129.39
2017-07-30T08:07:43.394Z,94131.83
2017-07-30T08:10:11.117Z,94132.59
2017-07-30T08:12:38.933Z,94131.02
2017-07-30T08:15:06.741Z,94130.08
2017-07-30T08:17:34.538Z,94131.10
2017-07-30T08:20:02.412Z,94137.37
2017-07-30T08:22:30.307Z,94135.05
2017-07-30T08:24:58.056Z,94134.20
2017-07-30T08:27:25.861Z,94126.52
2017-07-30T08:29:53.730Z,94135.72
2017-07-30T08:32:21.632Z,94134.09
2017-07-30T08:34:49.345Z,94135.61
2017-07-30T08:37:17.123Z,94134.52
2017-07-30T08:39:44.909Z,94133.39
2017-07-30T08:42:12.730Z,94131.06
2017-07-30T08:44:40.557Z,94131.48
2017-07-30T08:47:08.335Z,94126.97
2017-07-30T08:49:36.063Z,94130.45
2017-07-30T08:52:03.922Z,94129.17
2017-07-30T08:54:31.671Z,94129.59
2017-07-30T08:56:59.479Z,94120.02
2017-07-30T08:59:27.199Z,94120.74
2017-07-30T09:01:54.961Z,94127.28
2017-07-30T09:04:22.718Z,94116.77
2017-07-30T09:06:50.569Z,94113.17
2017-07-30T09:09:18.307Z,94112.83
2017-07-30T09:11:46.055Z,94116.99
2017-07-30T09:14:13.804Z,94114.97
2017-07-30T09:16:41.586Z,94114.86
2017-07-30T09:19:09.414Z,94117.68
2017-07-30T09:21:37.105Z,94111.63
2017-07-30T09:24:04.891Z,94114.23
2017-07-30T09:26:32.650Z,94118.00
2017-07-30T09:29:00.419Z,94115.56
2017-07-30T09:31:28.323Z,94114.98
2017-07-30T09:33:56.059Z,94117.95
2017-07-30T09:36:23.874Z,94110.67
2017-07-30T09:38:51.631Z,94111.10
2017-07-30T09:41:19.472Z,94101.20
2017-07-30T09:43:47.251Z,94099.35
2017-07-30T09:46:15.142Z,94104.64
2017-07-30T09:48:42.887Z,94113.14
2017-07-30T09:51:10.987Z,94104.37
2017-07-30T09:53:38.739Z,94116.19
2017-07-30T09:56:06.481Z,94117.21
2017-07-30T09:58:34.282Z,94120.43
2017-07-30T10:01:02.116Z,94114.44
2017-07-30T10:03:29.986Z,94111.41
2017-07-30T10:05:58.399Z,94110.80
2017-07-30T10:08:26.109Z,94106.68
2017-07-30T10:10:53.876Z,94113.69
2017-07-30T10:13:21.630Z,94113.84
2017-07-30T10:15:49.461Z,94111.02
2017-07-30T10:18:17.226Z,94106.48
2017-07-30T10:20:44.974Z,94097.78
2017-07-30T10:23:12.939Z,94098.48
2017-07-30T10:25:40.728Z,94094.09
2017-07-30T10:28:08.507Z,94096.14
2017-07-30T10:30:36.296Z,94107.02
2017-07-30T10:33:04.188Z,94120.64
2017-07-30T10:35:31.882Z,94121.33
2017-07-30T10:37:59.584Z,94114.13
2017-07-30T10:40:27.367Z,94118.04
2017-07-30T10:42:55.154Z,94115.61
2017-07-30T10:45:22.873Z,94104.59
2017-07-30T10:47:50.573Z,94098.63
2017-07-30T10:50:18.385Z,94093.70
2017-07-30T10:52:46.110Z,94092.23
2017-07-30T10:55:13.884Z,94090.98
2017-07-30T10:57:41.811Z,94097.22
2017-07-30T11:00:10.502Z,94091.61
2017-07-30T11:02:38.247Z,94080.70
2017-07-30T11:05:05.978Z,94072.17
2017-07-30T11:07:33.775Z,94069.70
2017-07-30T11:10:02.572Z,94070.87
2017-07-30T11:12:30.295Z,94076.95
2017-07-30T11:14:58.074Z,94070.59
2017-07-30T11:17:25.854Z,94068.47
2017-07-30T11:19:53.622Z,94069.34
2017-07-30T11:22:21.332Z,94068.91
2017-07-30T11:24:49.022Z,94067.10
2017-07-30T11:27:16.836Z,94065.80
2017-07-30T11:29:44.592Z,94062.98
2017-07-30T11:32:13.273Z,94052.84
2017-07-30T11:34:41.128Z,94054.05
2017-07-30T11:37:08.906Z,94061.88
2017-07-30T11:39:36.622Z,94062.04
2017-07-30T11:42:04.344Z,94059.72
2017-07-30T11:44:32.190Z,94069.80
2017-07-30T11:46:59.884Z,94066.91
2017-07-30T11:49:27.628Z,94068.14
2017-07-30T11:51:55.428Z,94071.42
2017-07-30T11:54:23.123Z,94068.75
2017-07-30T11:56:50.889Z,94066.16
2017-07-30T11:59:18.689Z,94074.33
2017-07-30T12:01:46.798Z,94070.85
2017-07-30T12:04:14.500Z,94071.58
2017-07-30T12:06:42.198Z,94067.00
2017-07-30T12:09:09.986Z,94066.00
2017-07-30T12:11:37.686Z,94073.25
2017-07-30T12:14:05.461Z,94082.39
2017-07-30T12:16:33.182Z,94096.18
2017-07-30T12:19:01.111Z,94099.11
2017-07-30T12:21:28.852Z,94110.14
2017-07-30T12:23:56.581Z,94121.27
2017-07-30T12:26:24.350Z,94129.02
2017-07-30T12:28:52.090Z,94126.34
2017-07-30T12:31:19.793Z,94134.71
2017-07-30T12:33:47.609Z,94133.44
2017-07-30T12:36:15.340Z,94125.00
2017-07-30T12:38:43.071Z,94131.83
2017-07-30T12:41:11.581Z,94130.77
2017-07-30T12:43:39.382Z,94140.13
2017-07-30T12:46:07.143Z,94139.42
2017-07-30T12:48:35.218Z,94138.81
2017-07-30T12:51:03.277Z,94143.38
2017-07-30T12:53:31.052Z,94142.53
2017-07-30T12:55:58.878Z,94154.94
2017-07-30T12:58:26.656Z,94156.12
2017-07-30T13:00:54.458Z,94162.94
2017-07-30T13:03:22.405Z,94157.78
2017-07-30T13:05:50.134Z,94173.09
2017-07-30T13:08:17.862Z,94164.67
2017-07-30T13:10:45.727Z,94154.69
2017-07-30T13:13:13.527Z,94166.21
2017-07-30T13:15:42.560Z,94166.84
2017-07-30T13:18:10.420Z,94160.34
2017-07-30T13:20:39.120Z,94163.06
2017-07-30T13:23:06.875Z,94166.16
2017-07-30T13:25:34.590Z,94164.99
2017-07-30T13:28:03.428Z,94164.57
2017-07-30T13:30:31.245Z,94174.72
2017-07-30T13:32:59.035Z,94179.76
2017-07-30T13:35:26.792Z,94178.73
2017-07-30T13:37:54.574Z,94184.07
2017-07-30T13:40:22.363Z,94187.66
2017-07-30T13:42:50.145Z,94187.15
2017-07-30T13:45:17.911Z,94190.75
2017-07-30T13:47:45.627Z,94193.25
2017-07-30T13:50:13.429Z,94187.36
2017-07-30T13:52:42.193Z,94197.28
2017-07-30T13:55:10.347Z,94202.38
2017-07-30T13:57:38.250Z,94206.13
2017-07-30T14:00:06.090Z,94210.78
2017-07-30T14:02:33.907Z,94212.95
2017-07-30T14:05:01.737Z,94217.75
2017-07-30T14:07:29.712Z,94233.16
2017-07-30T14:09:57.442Z,94229.51
2017-07-30T14:12:25.195Z,94230.28
2017-07-30T14:14:53.013Z,94231.69
2017-07-30T14:17:20.731Z,94225.83
2017-07-30T14:19:48.557Z,94219.82
2017-07-30T14:22:16.353Z,94210.74
2017-07-30T14:24:44.092Z,94203.46
2017-07-30T14:27:11.820Z,94196.15
2017-07-30T14:29:39.604Z,94197.62
2017-07-30T14:32:07.318Z,94202.09
2017-07-30T14:34:35.074Z,94202.94
2017-07-30T14:37:02.937Z,94201.17
2017-07-30T14:39:30.664Z,94203.58
2017-07-30T14:41:58.404Z,94202.79
2017-07-30T14:44:26.228Z,94199.34
2017-07-30T14:46:54.082Z,94198.84
2017-07-30T14:49:21.806Z,94191.25
2017-07-30T14:51:49.588Z,94185.56
2017-07-30T14:54:17.408Z,94195.16
2017-07-30T14:56:45.283Z,94190.99
2017-07-30T14:59:13.164Z,94190.35
2017-07-30T15:01:40.997Z,94191.23
2017-07-30T15:04:08.796Z,94198.08
2017-07-30T15:06:37.095Z,94193.18
2017-07-30T15:09:05.168Z,94193.89
2017-07-30T15:11:33.004Z,94186.06
2017-07-30T15:14:01.287Z,94180.59
2017-07-30T15:16:29.050Z,94180.98
2017-07-30T15:18:56.865Z,94178.59
2017-07-30T15:21:24.671Z,94173.66
2017-07-30T15:23:52.520Z,94173.39
2017-07-30T15:26:20.277Z,94170.84
2017-07-30T15:28:48.086Z,94161.52
2017-07-30T15:31:16.041Z,94159.70
2017-07-30T15:33:43.909Z,94159.36
2017-07-30T15:36:11.731Z,94160.22
2017-07-30T15:38:39.551Z,94160.98
2017-07-30T15:41:07.370Z,94162.06
2017-07-30T15:43:35.110Z,94162.91
2017-07-30T15:46:02.981Z,94172.71
2017-07-30T15:48:31.833Z,94173.41
2017-07-30T15:51:00.020Z,94163.20
2017-07-30T15:53:28.107Z,94159.53
2017-07-30T15:55:56.048Z,94171.28
2017-07-30T15:58:23.847Z,94167.63
2017-07-30T16:00:51.611Z,94172.27
2017-07-30T16:03:19.405Z,94173.38
2017-07-30T16:05:47.179Z,94177.46
2017-07-30T16:08:14.933Z,94185.54
2017-07-30T16:10:42.712Z,94195.27
2017-07-30T16:13:10.503Z,94187.89
2017-07-30T16:15:38.217Z,94190.11
2017-07-30T16:18:06.031Z,94189.34
2017-07-30T16:20:33.754Z,94188.81
2017-07-30T16:23:01.603Z,94188.16
2017-07-30T16:25:29.438Z,94190.70
2017-07-30T16:27:57.167Z,94188.78
2017-07-30T16:30:24.946Z,94184.23
2017-07-30T16:32:52.709Z,94184.08
2017-07-30T16:35:20.432Z,94191.50
2017-07-30T16:37:48.214Z,94197.52
2017-07-30T16:40:16.078Z,94197.09
2017-07-30T16:42:43.850Z,94191.94
2017-07-30T16:45:11.685Z,94192.37
2017-07-30T16:47:39.593Z,94188.17
2017-07-30T16:50:07.340Z,94195.27
2017-07-30T16:52:35.152Z,94191.77
2017-07-30T16:55:03.191Z,94190.05
2017-07-30T16:57:31.627Z,94184.84
2017-07-30T16:59:59.457Z,94185.58
2017-07-30T17:02:27.232Z,94186.31
2017-07-30T17:04:55.144Z,94180.17
2017-07-30T17:07:22.948Z,94186.77
2017-07-30T17:09:50.732Z,94181.98
2017-07-30T17:12:18.595Z,94186.42
2017-07-30T17:14:46.484Z,94186.57
2017-07-30T17:17:14.329Z,94180.59
2017-07-30T17:19:42.085Z,94182.95
2017-07-30T17:22:09.841Z,94186.44
2017-07-30T17:24:37.632Z,94188.56
2017-07-30T17:27:05.414Z,94189.05
2017-07-30T17:29:33.242Z,94183.13
2017-07-30T17:32:00.967Z,94189.93
2017-07-30T17:34:28.718Z,94190.97
2017-07-30T17:36:56.488Z,94201.93
2017-07-30T17:39:24.408Z,94205.47
2017-07-30T17:41:52.320Z,94199.58
2017-07-30T17:44:20.154Z,94198.47
2017-07-30T17:46:47.896Z,94198.56
2017-07-30T17:49:15.690Z,94200.27
2017-07-30T17:51:43.506Z,94200.05
2017-07-30T17:54:11.247Z,94201.27
2017-07-30T17:56:39.730Z,94201.71
2017-07-30T17:59:07.554Z,94202.89
2017-07-30T18:01:35.382Z,94208.56
2017-07-30T18:04:03.146Z,94207.14
2017-07-30T18:06:30.965Z,94206.53
2017-07-30T18:08:58.742Z,94193.98
2017-07-30T18:11:26.504Z,94191.91
2017-07-30T18:13:54.310Z,94194.14
2017-07-30T18:16:22.175Z,94194.83
2017-07-30T18:18:52.047Z,94197.66
2017-07-30T18:21:19.953Z,94201.06
2017-07-30T18:23:47.963Z,94198.38
2017-07-30T18:26:19.146Z,94200.86
2017-07-30T18:28:46.916Z,94195.96
2017-07-30T18:31:14.879Z,94188.77
2017-07-30T18:33:42.805Z,94183.58
2017-07-30T18:36:11.432Z,94184.44
2017-07-30T18:38:39.344Z,94186.88
2017-07-30T18:41:08.021Z,94181.87
2017-07-30T18:43:35.751Z,94179.29
2017-07-30T18:46:03.568Z,94178.66
2017-07-30T18:48:31.315Z,94179.36
2017-07-30T18:50:59.091Z,94174.37
2017-07-30T18:53:28.006Z,94173.09
2017-07-30T18:55:55.967Z,94176.73
2017-07-30T18:58:23.772Z,94183.44
2017-07-30T19:00:51.741Z,94189.54
2017-07-30T19:03:19.630Z,94191.50
2017-07-30T19:05:47.374Z,94206.57
2017-07-30T19:08:16.336Z,94220.63
2017-07-30T19:10:44.262Z,94230.06
2017-07-30T19:13:12.106Z,94238.15
2017-07-30T19:15:39.912Z,94244.73
2017-07-30T19:18:07.717Z,94242.99
2017-07-30T19:20:35.584Z,94246.44
2017-07-30T19:23:03.702Z,94248.57
2017-07-30T19:25:31.987Z,94253.10
2017-07-30T19:27:59.996Z,94259.67
2017-07-30T19:30:27.991Z,94268.18
2017-07-30T19:32:55.822Z,94269.47
2017-07-30T19:35:23.630Z,94270.64
2017-07-30T19:37:51.533Z,94269.48
2017-07-30T19:40:19.565Z,94278.94
2017-07-30T19:42:47.448Z,94289.66
2017-07-30T19:45:15.337Z,94298.07
2017-07-30T19:47:43.373Z,94299.07
2017-07-30T19:50:11.368Z,94298.00
2017-07-30T19:52:39.214Z,94294.10
2017-07-30T20:10:27.975Z,94307.84
2017-07-30T20:12:55.762Z,94315.28
2017-07-30T20:15:24.470Z,94314.67
2017-07-30T20:17:53.257Z,94321.41
2017-07-30T20:20:21.170Z,94328.81
2017-07-30T20:31:11.821Z,94335.05
2017-07-30T20:33:40.214Z,94338.64
2017-07-30T20:36:08.288Z,94336.80
2017-07-30T20:38:36.348Z,94334.05
2017-07-30T20:41:04.392Z,94323.37
2017-07-30T20:43:32.189Z,94334.48
2017-07-30T20:46:00.099Z,94335.41
2017-07-30T20:48:28.667Z,94338.31
2017-07-30T20:50:57.659Z,94343.44
2017-07-30T20:53:26.354Z,94342.16
2017-07-30T20:55:55.344Z,94353.23
2017-07-30T21:01:11.893Z,94360.20
2017-07-30T21:03:39.911Z,94357.86
2017-07-30T21:06:07.878Z,94357.31
2017-07-30T21:08:35.746Z,94362.34
2017-07-30T21:21:13.044Z,94362.55
2017-07-30T21:23:40.847Z,94374.53
2017-07-30T21:26:09.468Z,94376.24
2017-07-30T21:28:37.280Z,94374.55
2017-07-30T21:31:05.125Z,94371.38
2017-07-30T21:33:32.876Z,94374.55
2017-07-30T21:41:11.269Z,94379.31
2017-07-30T21:43:39.017Z,94382.07
2017-07-30T21:46:07.952Z,94379.92
2017-07-30T22:01:11.296Z,94386.10
2017-07-30T22:03:39.126Z,94390.03
2017-07-30T22:06:06.935Z,94396.21
2017-07-30T22:08:34.700Z,94398.89
2017-07-30T22:11:02.399Z,94401.64
2017-07-30T22:13:31.046Z,94413.73
2017-07-30T22:15:59.720Z,94408.36
2017-07-30T22:21:18.644Z,94414.99
2017-07-30T22:23:46.436Z,94425.34
2017-07-30T22:26:14.260Z,94434.06
2017-07-30T22:28:42.032Z,94448.39
2017-07-30T22:31:09.804Z,94450.11
2017-07-30T22:33:37.539Z,94451.44
2017-07-30T22:36:05.646Z,94452.60
2017-07-30T22:38:33.755Z,94447.55
2017-07-30T22:41:01.529Z,94449.16
2017-07-30T22:43:29.298Z,94439.97
2017-07-30T22:45:57.746Z,94438.25
2017-07-30T22:48:26.441Z,94424.77
2017-07-30T22:50:54.308Z,94426.34
2017-07-30T22:53:22.097Z,94440.09
2017-07-30T22:55:49.853Z,94429.34
2017-07-30T22:58:17.615Z,94416.06
2017-07-30T23:00:45.506Z,94408.29
2017-07-30T23:03:13.301Z,94402.52
2017-07-30T23:05:41.071Z,94400.26
2017-07-30T23:08:08.783Z,94397.77
2017-07-30T23:10:36.647Z,94393.97
2017-07-30T23:13:04.905Z,94394.09
2017-07-30T23:15:32.654Z,94387.62
2017-07-30T23:18:00.616Z,94390.77
2017-07-30T23:20:28.486Z,94392.28
2017-07-30T23:22:56.577Z,94396.48
2017-07-30T23:25:24.749Z,94391.48
2017-07-30T23:27:52.459Z,94396.49
2017-07-30T23:30:20.244Z,94389.34
2017-07-30T23:32:47.956Z,94389.95
2017-07-30T23:35:15.714Z,94393.20
2017-07-30T23:37:43.522Z,94391.22
2017-07-30T23:40:12.262Z,94384.30
2017-07-30T23:42:40.030Z,94388.68
2017-07-30T23:45:07.915Z,94386.40
2017-07-30T23:47:35.662Z,94388.22
2017-07-30T23:50:04.547Z,94383.08
2017-07-30T23:52:32.539Z,94380.52
2017-07-30T23:55:00.260Z,94388.16
2017-07-30T23:57:28.005Z,94384.05
2017-07-30T23:59:55.748Z,94380.50
